सभी
Lizard Island Airport (Lizard Island, Queensland) LZR मौसम
There is no TAF data available at LZR or any nearby airports.
There is no METAR data available at LZR. Showing METAR data for YCFL (23 mi SW).
Recent YCFL METAR history (no data for LZR)
| Date | Time (AEST) | Flight Rules | Wind Dir. | Speed | Type | Height AGL (ft) | Visibility | Temp (°C) | Temp (°F) | Dew Point (°C) | Dew Point (°F) | Rel. Humid. | Pressure | Density Altitude | Remarks |
|---|---|---|---|---|---|---|---|---|---|---|---|---|---|---|---|
| 06-मई | 10:00 | n/a | 150° | 15 kt | Missing | 27° | 80° | 23° | 73° | 79% | 1014 mb | 1,463 ft | |||
| 06-मई | 09:00 | n/a | 170° | 13 kt | Missing | 26° | 78° | 22° | 71° | 79% | 1014 mb | 1,343 ft | |||
| 06-मई | 08:00 | n/a | 160° | 13 kt | Missing | 25° | 77° | 23° | 73° | 89% | 1013 mb | 1,252 ft | |||
| 06-मई | 07:00 | n/a | 150° | 10 kt | Missing | 24° | 75° | 22° | 71° | 89% | 1012 mb | 1,162 ft | |||
| 06-मई | 06:00 | n/a | 150° | 10 kt | Missing | 24° | 75° | 22° | 71° | 89% | 1012 mb | 1,162 ft | |||
| 06-मई | 05:00 | n/a | 150° | 13 kt | Missing | 25° | 77° | 21° | 69° | 79% | 1011 mb | 1,311 ft | |||
| 06-मई | 04:00 | n/a | 140° | 11 kt | Missing | 25° | 77° | 22° | 71° | 83% | 1011 mb | 1,311 ft | |||
| 06-मई | 03:00 | n/a | 160° | 13 kt | Missing | 25° | 77° | 21° | 69° | 79% | 1011 mb | 1,311 ft | |||
| 06-मई | 02:00 | n/a | 160° | 14 kt | Missing | 25° | 77° | 22° | 71° | 83% | 1012 mb | 1,282 ft | |||
| 06-मई | 01:00 | n/a | 150° | 14 kt | Missing | 25° | 77° | 21° | 69° | 79% | 1012 mb | 1,282 ft | |||
| 06-मई | 00:00 | n/a | 150° | 15 kt | Missing | 25° | 77° | 21° | 69° | 79% | 1013 mb | 1,252 ft | |||
| 05-मई | 23:00 | n/a | 150° | 15 kt | Missing | 25° | 77° | 22° | 71° | 83% | 1013 mb | 1,252 ft | |||
| 05-मई | 22:00 | n/a | 150° | 16 kt | Missing | 25° | 77° | 22° | 71° | 83% | 1013 mb | 1,252 ft | |||
| 05-मई | 21:00 | n/a | 150° | 15 kt | Missing | 25° | 77° | 21° | 69° | 79% | 1014 mb | 1,223 ft | |||
| 05-मई | 20:00 | n/a | 150° | 15 kt | Missing | 25° | 77° | 21° | 69° | 79% | 1013 mb | 1,252 ft | |||
| 05-मई | 19:00 | n/a | 160° | 14 kt | Missing | 25° | 77° | 21° | 69° | 79% | 1013 mb | 1,252 ft | |||
| 05-मई | 18:00 | n/a | 160° | 15 kt | Missing | 25° | 77° | 21° | 69° | 79% | 1012 mb | 1,282 ft | |||
| 05-मई | 17:00 | n/a | 160° | 15 kt | Missing | 26° | 78° | 23° | 73° | 84% | 1012 mb | 1,402 ft | |||
| 05-मई | 16:00 | n/a | 130° | 13 kt | Missing | 24° | 75° | 21° | 69° | 83% | 1011 mb | 1,191 ft | |||
| 05-मई | 15:00 | n/a | 160° | 12 kt | Missing | 27° | 80° | 21° | 69° | 70% | 1011 mb | 1,551 ft | |||
| 05-मई | 14:00 | n/a | 170° | 12 kt | Missing | 26° | 78° | 21° | 69° | 74% | 1012 mb | 1,402 ft | |||
| 05-मई | 13:00 | n/a | 170° | 16 kt | Missing | 27° | 80° | 22° | 71° | 74% | 1012 mb | 1,522 ft | |||
| 05-मई | 12:00 | n/a | 170° | 17 kt | Missing | 27° | 80° | 23° | 73° | 79% | 1013 mb | 1,492 ft | |||
| 05-मई | 11:00 | n/a | 160° | 14 kt | Missing | 26° | 78° | 24° | 75° | 89% | 1014 mb | 1,343 ft |
लॉगिन
| Your browser is unsupported. अपना ब्राऊजर अपग्रेड करें |
